Time;durP1;ratioP1;P1;durP2;ratioP2;P2;SDS_P1;SDS_P2;PMS_P1;PMS_P2;Temp;Humidity;BMP_temperature;BMP_pressure;BME280_temperature;BME280_humidity;BME280_pressure;Samples;Min_cycle;Max_cycle;Signal;HPM_P1;HPM_P2
2021/12/27 09:55:49;;;;;;;12.55;7.05;;;3.50;99.90;;;;;;5050504;28;20466;-63
2021/12/27 09:58:15;;;;;;;9.70;6.30;;;3.40;99.90;;;;;;5048686;28;20033;-68
2021/12/27 10:00:42;;;;;;;14.20;6.55;;;3.60;99.90;;;;;;5047432;28;20042;-62
2021/12/27 10:03:09;;;;;;;10.35;7.25;;;3.80;99.90;;;;;;5042820;28;20021;-61
2021/12/27 10:05:36;;;;;;;7.60;5.53;;;4.00;99.90;;;;;;5038423;28;20053;-65
2021/12/27 10:08:02;;;;;;;8.00;5.78;;;4.20;99.90;;;;;;5044775;28;20029;-56
2021/12/27 10:10:34;;;;;;;8.60;6.00;;;4.30;99.90;;;;;;5041176;28;20029;-62
2021/12/27 10:13:00;;;;;;;11.13;5.75;;;4.40;99.90;;;;;;5043624;28;20029;-63
2021/12/27 10:15:36;;;;;;;9.32;5.90;;;4.60;99.90;;;;;;5044171;28;20086;-65
2021/12/27 10:18:13;;;;;;;7.95;4.40;;;4.80;99.90;;;;;;5041544;28;20032;-62
2021/12/27 10:20:40;;;;;;;9.65;6.88;;;5.00;99.90;;;;;;5045676;28;20033;-60
2021/12/27 10:23:06;;;;;;;8.10;5.45;;;5.10;99.90;;;;;;5046044;28;20120;-60
2021/12/27 10:25:32;;;;;;;9.10;5.90;;;5.10;99.90;;;;;;5048407;28;20028;-62
2021/12/27 10:27:59;;;;;;;8.77;5.38;;;5.20;99.90;;;;;;5045624;28;20029;-60
2021/12/27 10:30:28;;;;;;;8.52;6.18;;;5.20;99.90;;;;;;5038136;28;20026;-65
2021/12/27 10:33:08;;;;;;;9.07;6.47;;;5.10;99.90;;;;;;5045632;28;20075;-58
2021/12/27 10:35:45;;;;;;;13.68;8.15;;;5.00;99.90;;;;;;5054232;28;20033;-62
2021/12/27 10:38:11;;;;;;;9.88;6.28;;;5.10;99.90;;;;;;5044710;28;20386;-63
2021/12/27 10:40:37;;;;;;;8.57;6.10;;;5.20;99.90;;;;;;5048585;28;20029;-59
2021/12/27 10:43:04;;;;;;;9.88;6.45;;;5.10;99.90;;;;;;5046203;28;20392;-61
2021/12/27 10:45:30;;;;;;;9.25;6.30;;;5.10;99.90;;;;;;5049798;28;20048;-62
2021/12/27 10:48:02;;;;;;;8.77;5.88;;;5.20;99.90;;;;;;5066077;28;20478;-60
2021/12/27 10:50:31;;;;;;;6.07;4.38;;;5.20;99.90;;;;;;5066379;28;20025;-62
2021/12/27 10:53:01;;;;;;;6.50;4.55;;;5.10;99.90;;;;;;5067644;28;20482;-58
2021/12/27 10:55:38;;;;;;;6.47;4.40;;;5.10;99.90;;;;;;5061780;28;20518;-58
2021/12/27 10:58:12;;;;;;;5.97;4.35;;;5.20;99.90;;;;;;5047520;28;20104;-58
2021/12/27 11:00:39;;;;;;;6.50;4.40;;;5.30;99.90;;;;;;5045644;28;20059;-58
2021/12/27 11:03:05;;;;;;;6.72;4.65;;;5.40;99.90;;;;;;5042687;28;20430;-60
2021/12/27 11:05:35;;;;;;;7.82;5.30;;;5.50;99.90;;;;;;5045693;28;20337;-55
2021/12/27 11:08:05;;;;;;;6.60;4.88;;;5.50;99.90;;;;;;5044439;28;20456;-60
2021/12/27 11:10:36;;;;;;;7.68;5.93;;;5.60;99.90;;;;;;5027181;28;20036;-62
2021/12/27 11:13:04;;;;;;;7.32;5.13;;;5.50;99.90;;;;;;5022168;28;20033;-60
2021/12/27 11:15:32;;;;;;;5.43;4.63;;;5.50;99.90;;;;;;5030739;28;20048;-53
2021/12/27 11:17:58;;;;;;;5.10;4.28;;;5.40;99.90;;;;;;5012975;28;20053;-55
2021/12/27 11:20:25;;;;;;;6.40;4.85;;;5.30;99.90;;;;;;5016261;28;20030;-60
2021/12/27 11:22:54;;;;;;;7.80;4.32;;;5.30;99.90;;;;;;5014838;28;20029;-65
2021/12/27 11:25:31;;;;;;;6.13;4.25;;;5.20;99.90;;;;;;5017348;28;20037;-58
2021/12/27 11:27:58;;;;;;;5.75;4.45;;;5.40;99.90;;;;;;5030358;28;20099;-63
2021/12/27 11:30:27;;;;;;;10.05;6.10;;;5.60;99.90;;;;;;5044228;28;20056;-61
2021/12/27 11:33:04;;;;;;;10.57;6.78;;;5.60;99.90;;;;;;5047118;28;20017;-67
2021/12/27 11:35:33;;;;;;;14.73;8.30;;;5.70;99.90;;;;;;5032847;28;20038;-58
2021/12/27 11:38:01;;;;;;;24.40;12.60;;;5.80;99.90;;;;;;5026980;28;20761;-63
2021/12/27 11:40:42;;;;;;;18.05;11.10;;;5.90;99.90;;;;;;5037502;28;20420;-61
2021/12/27 11:43:13;;;;;;;15.57;9.32;;;5.80;99.90;;;;;;5032696;28;20383;-64
2021/12/27 11:45:45;;;;;;;15.98;9.65;;;5.80;99.90;;;;;;5032159;28;20025;-61
2021/12/27 11:48:17;;;;;;;16.88;10.02;;;5.70;99.90;;;;;;5025401;28;20032;-62
2021/12/27 11:50:58;;;;;;;11.52;7.68;;;5.70;99.90;;;;;;5025728;28;20040;-61
2021/12/27 11:53:27;;;;;;;12.65;8.05;;;5.80;99.90;;;;;;5028216;28;20052;-62
2021/12/27 11:55:54;;;;;;;11.68;7.57;;;5.60;99.90;;;;;;5019656;28;20026;-64
2021/12/27 11:58:32;;;;;;;15.43;9.57;;;5.60;99.90;;;;;;5029628;28;20041;-66
2021/12/27 12:00:58;;;;;;;10.93;6.60;;;5.60;99.90;;;;;;5034131;28;20040;-68
2021/12/27 12:03:44;;;;;;;8.32;6.20;;;5.60;99.90;;;;;;5044969;28;20490;-61
2021/12/27 12:06:38;;;;;;;7.72;5.30;;;5.70;99.90;;;;;;5045604;28;20506;-58
2021/12/27 12:09:14;;;;;;;9.70;5.63;;;5.70;99.90;;;;;;5038923;28;20492;-64
2021/12/27 12:11:41;;;;;;;10.80;6.30;;;5.70;99.90;;;;;;5028131;28;20035;-58
2021/12/27 12:14:27;;;;;;;20.65;10.75;;;5.80;99.90;;;;;;5028447;28;20029;-63
